sensor_id;sensor_type;location;lat;lon;timestamp;pressure;altitude;pressure_sealevel;temperature;humidity
12987;BME280;58897;51.960;5.582;2023-06-14T00:00:02;101132.28;;;19.48;79.59
12987;BME280;58897;51.960;5.582;2023-06-14T00:02:30;101133.34;;;19.47;83.38
12987;BME280;58897;51.960;5.582;2023-06-14T00:04:57;101140.72;;;19.40;80.83
12987;BME280;58897;51.960;5.582;2023-06-14T00:07:36;101146.19;;;19.33;81.44
12987;BME280;58897;51.960;5.582;2023-06-14T00:10:03;101145.34;;;19.46;82.74
12987;BME280;58897;51.960;5.582;2023-06-14T00:12:31;101144.53;;;19.39;80.70
12987;BME280;58897;51.960;5.582;2023-06-14T00:14:58;101140.72;;;19.33;82.28
12987;BME280;58897;51.960;5.582;2023-06-14T00:17:24;101147.66;;;19.42;80.65
12987;BME280;58897;51.960;5.582;2023-06-14T00:19:51;101142.19;;;19.36;82.41
12987;BME280;58897;51.960;5.582;2023-06-14T00:22:17;101142.22;;;19.29;85.73
12987;BME280;58897;51.960;5.582;2023-06-14T00:24:44;101138.81;;;19.34;82.76
12987;BME280;58897;51.960;5.582;2023-06-14T00:27:11;101146.41;;;19.38;83.52
12987;BME280;58897;51.960;5.582;2023-06-14T00:29:38;101141.97;;;19.31;82.34
12987;BME280;58897;51.960;5.582;2023-06-14T00:32:04;101151.91;;;19.32;83.93
12987;BME280;58897;51.960;5.582;2023-06-14T00:34:31;101150.41;;;19.23;87.34
12987;BME280;58897;51.960;5.582;2023-06-14T00:36:58;101145.78;;;19.10;86.92
12987;BME280;58897;51.960;5.582;2023-06-14T00:39:24;101151.91;;;19.12;87.58
12987;BME280;58897;51.960;5.582;2023-06-14T00:41:51;101150.63;;;19.15;88.26
12987;BME280;58897;51.960;5.582;2023-06-14T00:44:17;101159.91;;;19.00;89.15
12987;BME280;58897;51.960;5.582;2023-06-14T00:46:45;101157.59;;;19.04;88.61
12987;BME280;58897;51.960;5.582;2023-06-14T00:49:14;101149.56;;;18.96;90.20
12987;BME280;58897;51.960;5.582;2023-06-14T00:51:42;101150.84;;;18.87;89.35
12987;BME280;58897;51.960;5.582;2023-06-14T00:54:09;101150.41;;;18.96;89.75
12987;BME280;58897;51.960;5.582;2023-06-14T00:56:36;101149.38;;;18.97;89.20
12987;BME280;58897;51.960;5.582;2023-06-14T00:59:03;101152.75;;;18.86;89.01
12987;BME280;58897;51.960;5.582;2023-06-14T01:01:30;101150.00;;;18.73;89.78
12987;BME280;58897;51.960;5.582;2023-06-14T01:04:00;101158.00;;;18.81;90.69
12987;BME280;58897;51.960;5.582;2023-06-14T01:12:29;101153.34;;;18.75;92.51
12987;BME280;58897;51.960;5.582;2023-06-14T01:15:00;101157.13;;;18.68;92.47
12987;BME280;58897;51.960;5.582;2023-06-14T01:17:28;101155.66;;;18.65;95.10
12987;BME280;58897;51.960;5.582;2023-06-14T01:20:02;101154.41;;;18.61;95.66
12987;BME280;58897;51.960;5.582;2023-06-14T01:22:29;101149.75;;;18.62;95.34
12987;BME280;58897;51.960;5.582;2023-06-14T01:24:56;101149.13;;;18.60;95.08
12987;BME280;58897;51.960;5.582;2023-06-14T01:27:25;101147.59;;;18.44;96.31
12987;BME280;58897;51.960;5.582;2023-06-14T01:29:59;101154.78;;;18.52;96.77
12987;BME280;58897;51.960;5.582;2023-06-14T01:32:28;101149.47;;;18.43;96.08
12987;BME280;58897;51.960;5.582;2023-06-14T01:34:56;101146.13;;;18.41;97.37
12987;BME280;58897;51.960;5.582;2023-06-14T01:37:22;101156.19;;;18.34;98.02
12987;BME280;58897;51.960;5.582;2023-06-14T01:39:50;101150.50;;;18.36;96.95
12987;BME280;58897;51.960;5.582;2023-06-14T01:42:17;101153.88;;;18.31;98.42
12987;BME280;58897;51.960;5.582;2023-06-14T01:44:44;101153.47;;;18.34;98.86
12987;BME280;58897;51.960;5.582;2023-06-14T01:47:13;101155.34;;;18.34;97.95
12987;BME280;58897;51.960;5.582;2023-06-14T01:49:40;101153.88;;;18.25;98.32
12987;BME280;58897;51.960;5.582;2023-06-14T01:52:07;101156.59;;;18.31;97.44
12987;BME280;58897;51.960;5.582;2023-06-14T01:54:36;101153.84;;;18.18;99.37
12987;BME280;58897;51.960;5.582;2023-06-14T01:57:08;101154.31;;;18.35;97.19
12987;BME280;58897;51.960;5.582;2023-06-14T01:59:35;101147.06;;;18.08;98.85
12987;BME280;58897;51.960;5.582;2023-06-14T02:02:02;101146.25;;;18.14;99.68
12987;BME280;58897;51.960;5.582;2023-06-14T02:04:29;101146.25;;;18.14;100.00
12987;BME280;58897;51.960;5.582;2023-06-14T02:06:56;101144.78;;;18.11;99.38
12987;BME280;58897;51.960;5.582;2023-06-14T02:09:22;101143.69;;;18.06;99.04
12987;BME280;58897;51.960;5.582;2023-06-14T02:11:50;101152.75;;;18.06;99.30
12987;BME280;58897;51.960;5.582;2023-06-14T02:14:16;101136.94;;;18.02;100.00
12987;BME280;58897;51.960;5.582;2023-06-14T02:16:43;101147.69;;;18.03;100.00
12987;BME280;58897;51.960;5.582;2023-06-14T02:19:16;101142.78;;;17.92;100.00
12987;BME280;58897;51.960;5.582;2023-06-14T02:21:43;101140.69;;;17.94;100.00
12987;BME280;58897;51.960;5.582;2023-06-14T02:24:10;101140.69;;;17.87;100.00
12987;BME280;58897;51.960;5.582;2023-06-14T02:26:37;101138.13;;;17.86;100.00
12987;BME280;58897;51.960;5.582;2023-06-14T02:29:07;101144.84;;;17.83;99.67
12987;BME280;58897;51.960;5.582;2023-06-14T02:31:38;101149.06;;;17.86;99.96
12987;BME280;58897;51.960;5.582;2023-06-14T02:34:05;101152.84;;;17.85;100.00
12987;BME280;58897;51.960;5.582;2023-06-14T02:36:32;101149.22;;;17.71;100.00
12987;BME280;58897;51.960;5.582;2023-06-14T02:38:58;101148.19;;;17.79;100.00
12987;BME280;58897;51.960;5.582;2023-06-14T02:41:25;101145.88;;;17.76;100.00
12987;BME280;58897;51.960;5.582;2023-06-14T02:43:55;101151.16;;;17.77;100.00
12987;BME280;58897;51.960;5.582;2023-06-14T02:46:22;101150.53;;;17.82;100.00
12987;BME280;58897;51.960;5.582;2023-06-14T02:48:49;101158.97;;;17.87;100.00
12987;BME280;58897;51.960;5.582;2023-06-14T02:51:15;101155.06;;;17.68;100.00
12987;BME280;58897;51.960;5.582;2023-06-14T02:53:42;101156.78;;;17.69;100.00
12987;BME280;58897;51.960;5.582;2023-06-14T02:56:10;101165.75;;;17.63;100.00
12987;BME280;58897;51.960;5.582;2023-06-14T02:58:37;101157.03;;;17.47;100.00
12987;BME280;58897;51.960;5.582;2023-06-14T03:01:04;101167.53;;;17.50;100.00
12987;BME280;58897;51.960;5.582;2023-06-14T03:03:31;101159.59;;;17.55;100.00
12987;BME280;58897;51.960;5.582;2023-06-14T03:05:58;101166.78;;;17.56;100.00
12987;BME280;58897;51.960;5.582;2023-06-14T03:08:31;101160.00;;;17.52;100.00
12987;BME280;58897;51.960;5.582;2023-06-14T03:10:59;101166.19;;;17.39;100.00
12987;BME280;58897;51.960;5.582;2023-06-14T03:13:26;101171.28;;;17.42;100.00
12987;BME280;58897;51.960;5.582;2023-06-14T03:15:53;101167.53;;;17.50;100.00
12987;BME280;58897;51.960;5.582;2023-06-14T03:18:22;101170.41;;;17.42;100.00
12987;BME280;58897;51.960;5.582;2023-06-14T03:20:52;101174.16;;;17.34;100.00
12987;BME280;58897;51.960;5.582;2023-06-14T03:23:20;101175.06;;;17.41;100.00
12987;BME280;58897;51.960;5.582;2023-06-14T03:25:47;101179.38;;;17.29;100.00
12987;BME280;58897;51.960;5.582;2023-06-14T03:28:14;101184.25;;;17.34;100.00
12987;BME280;58897;51.960;5.582;2023-06-14T03:30:42;101181.56;;;17.40;100.00
12987;BME280;58897;51.960;5.582;2023-06-14T03:33:08;101182.00;;;17.16;100.00
12987;BME280;58897;51.960;5.582;2023-06-14T03:35:35;101183.09;;;17.21;100.00
12987;BME280;58897;51.960;5.582;2023-06-14T03:38:02;101183.41;;;17.33;100.00
12987;BME280;58897;51.960;5.582;2023-06-14T03:40:30;101188.25;;;17.38;100.00
12987;BME280;58897;51.960;5.582;2023-06-14T03:42:57;101187.63;;;17.36;100.00
12987;BME280;58897;51.960;5.582;2023-06-14T03:45:24;101189.03;;;17.32;100.00
12987;BME280;58897;51.960;5.582;2023-06-14T03:47:50;101195.56;;;17.31;100.00
12987;BME280;58897;51.960;5.582;2023-06-14T03:50:18;101194.31;;;17.33;100.00
12987;BME280;58897;51.960;5.582;2023-06-14T03:52:45;101192.16;;;17.28;100.00
12987;BME280;58897;51.960;5.582;2023-06-14T03:55:11;101204.78;;;17.29;100.00
12987;BME280;58897;51.960;5.582;2023-06-14T03:57:42;101207.88;;;17.20;100.00
12987;BME280;58897;51.960;5.582;2023-06-14T04:00:09;101206.56;;;17.16;100.00
12987;BME280;58897;51.960;5.582;2023-06-14T04:02:37;101206.16;;;17.19;100.00
12987;BME280;58897;51.960;5.582;2023-06-14T04:05:04;101202.81;;;17.17;100.00
12987;BME280;58897;51.960;5.582;2023-06-14T04:07:35;101207.75;;;17.07;100.00
12987;BME280;58897;51.960;5.582;2023-06-14T04:10:07;101202.09;;;17.08;100.00
12987;BME280;58897;51.960;5.582;2023-06-14T04:12:36;101210.63;;;17.26;100.00
12987;BME280;58897;51.960;5.582;2023-06-14T04:15:03;101217.94;;;17.19;100.00
12987;BME280;58897;51.960;5.582;2023-06-14T04:17:45;101218.81;;;17.26;100.00
12987;BME280;58897;51.960;5.582;2023-06-14T04:20:12;101220.22;;;17.16;100.00
12987;BME280;58897;51.960;5.582;2023-06-14T04:22:39;101221.69;;;17.18;100.00
12987;BME280;58897;51.960;5.582;2023-06-14T04:25:07;101223.44;;;17.26;100.00
12987;BME280;58897;51.960;5.582;2023-06-14T04:27:34;101226.38;;;17.24;100.00
12987;BME280;58897;51.960;5.582;2023-06-14T04:30:03;101223.06;;;17.08;100.00
12987;BME280;58897;51.960;5.582;2023-06-14T04:32:30;101221.94;;;17.23;100.00
12987;BME280;58897;51.960;5.582;2023-06-14T04:35:00;101225.41;;;17.11;100.00
12987;BME280;58897;51.960;5.582;2023-06-14T04:37:30;101225.41;;;17.11;100.00
12987;BME280;58897;51.960;5.582;2023-06-14T04:39:56;101222.16;;;17.22;100.00
12987;BME280;58897;51.960;5.582;2023-06-14T04:42:24;101226.25;;;17.33;100.00
12987;BME280;58897;51.960;5.582;2023-06-14T04:44:57;101222.81;;;17.24;100.00
12987;BME280;58897;51.960;5.582;2023-06-14T04:47:25;101220.13;;;17.31;100.00
12987;BME280;58897;51.960;5.582;2023-06-14T04:49:59;101231.44;;;17.27;100.00
12987;BME280;58897;51.960;5.582;2023-06-14T04:52:27;101228.00;;;17.19;100.00
12987;BME280;58897;51.960;5.582;2023-06-14T04:54:53;101232.94;;;17.30;100.00
12987;BME280;58897;51.960;5.582;2023-06-14T04:57:21;101237.16;;;17.33;100.00
12987;BME280;58897;51.960;5.582;2023-06-14T04:59:48;101235.03;;;17.28;100.00
12987;BME280;58897;51.960;5.582;2023-06-14T05:02:17;101234.56;;;17.52;100.00
12987;BME280;58897;51.960;5.582;2023-06-14T05:04:44;101229.47;;;17.43;100.00
12987;BME280;58897;51.960;5.582;2023-06-14T05:07:11;101237.66;;;17.43;100.00
12987;BME280;58897;51.960;5.582;2023-06-14T05:09:37;101239.38;;;17.44;100.00
12987;BME280;58897;51.960;5.582;2023-06-14T05:12:04;101242.47;;;17.62;100.00
12987;BME280;58897;51.960;5.582;2023-06-14T05:14:31;101246.94;;;17.48;100.00
12987;BME280;58897;51.960;5.582;2023-06-14T05:16:57;101248.94;;;17.54;100.00
12987;BME280;58897;51.960;5.582;2023-06-14T05:19:24;101236.94;;;17.83;100.00
12987;BME280;58897;51.960;5.582;2023-06-14T05:21:50;101248.44;;;18.06;100.00
12987;BME280;58897;51.960;5.582;2023-06-14T05:24:17;101239.28;;;18.33;100.00
12987;BME280;58897;51.960;5.582;2023-06-14T05:26:44;101256.31;;;18.29;100.00
12987;BME280;58897;51.960;5.582;2023-06-14T05:29:11;101258.44;;;17.99;100.00
12987;BME280;58897;51.960;5.582;2023-06-14T05:31:37;101251.66;;;18.23;100.00
12987;BME280;58897;51.960;5.582;2023-06-14T05:34:04;101250.50;;;18.45;100.00
12987;BME280;58897;51.960;5.582;2023-06-14T05:36:31;101253.69;;;18.48;100.00
12987;BME280;58897;51.960;5.582;2023-06-14T05:38:57;101257.56;;;18.33;100.00
12987;BME280;58897;51.960;5.582;2023-06-14T05:41:26;101250.97;;;18.55;100.00
12987;BME280;58897;51.960;5.582;2023-06-14T05:43:54;101257.97;;;18.71;100.00
12987;BME280;58897;51.960;5.582;2023-06-14T05:46:22;101265.28;;;18.57;100.00
12987;BME280;58897;51.960;5.582;2023-06-14T05:48:51;101269.09;;;18.63;100.00
12987;BME280;58897;51.960;5.582;2023-06-14T05:51:18;101272.31;;;18.86;100.00
12987;BME280;58897;51.960;5.582;2023-06-14T05:53:48;101269.59;;;18.86;100.00
12987;BME280;58897;51.960;5.582;2023-06-14T05:56:16;101268.34;;;18.95;100.00
12987;BME280;58897;51.960;5.582;2023-06-14T05:58:45;101278.91;;;18.98;100.00
12987;BME280;58897;51.960;5.582;2023-06-14T06:01:11;101283.09;;;18.94;100.00
12987;BME280;58897;51.960;5.582;2023-06-14T06:03:39;101284.81;;;19.15;100.00
12987;BME280;58897;51.960;5.582;2023-06-14T06:06:06;101289.44;;;19.14;100.00
12987;BME280;58897;51.960;5.582;2023-06-14T06:08:32;101286.94;;;19.32;100.00
12987;BME280;58897;51.960;5.582;2023-06-14T06:10:59;101289.25;;;19.35;100.00
12987;BME280;58897;51.960;5.582;2023-06-14T06:13:27;101286.94;;;19.32;98.59
12987;BME280;58897;51.960;5.582;2023-06-14T06:15:53;101288.03;;;19.64;100.00
12987;BME280;58897;51.960;5.582;2023-06-14T06:18:20;101294.13;;;19.73;94.96
12987;BME280;58897;51.960;5.582;2023-06-14T06:20:46;101296.88;;;19.66;97.70
12987;BME280;58897;51.960;5.582;2023-06-14T06:23:13;101292.22;;;19.99;90.98
12987;BME280;58897;51.960;5.582;2023-06-14T06:25:40;101295.31;;;20.16;90.42
12987;BME280;58897;51.960;5.582;2023-06-14T06:28:06;101302.47;;;20.37;87.76
12987;BME280;58897;51.960;5.582;2023-06-14T06:30:33;101290.72;;;20.74;86.77
12987;BME280;58897;51.960;5.582;2023-06-14T06:32:59;101301.28;;;20.70;83.82
12987;BME280;58897;51.960;5.582;2023-06-14T06:35:26;101288.03;;;21.36;83.59
12987;BME280;58897;51.960;5.582;2023-06-14T06:37:52;101288.47;;;21.83;82.87
12987;BME280;58897;51.960;5.582;2023-06-14T06:40:19;101292.75;;;22.40;79.33
12987;BME280;58897;51.960;5.582;2023-06-14T06:42:46;101291.44;;;22.60;74.86
12987;BME280;58897;51.960;5.582;2023-06-14T06:45:12;101297.53;;;22.99;71.43
12987;BME280;58897;51.960;5.582;2023-06-14T06:47:40;101305.84;;;22.81;71.16
12987;BME280;58897;51.960;5.582;2023-06-14T06:50:07;101312.63;;;23.08;72.69
12987;BME280;58897;51.960;5.582;2023-06-14T06:52:34;101310.16;;;23.18;68.44
12987;BME280;58897;51.960;5.582;2023-06-14T06:55:01;101313.50;;;22.79;64.83
12987;BME280;58897;51.960;5.582;2023-06-14T06:57:29;101308.06;;;23.84;69.55
12987;BME280;58897;51.960;5.582;2023-06-14T06:59:57;101308.28;;;23.94;63.69
12987;BME280;58897;51.960;5.582;2023-06-14T07:02:23;101314.41;;;23.96;64.12
12987;BME280;58897;51.960;5.582;2023-06-14T07:04:50;101323.56;;;24.09;64.23
12987;BME280;58897;51.960;5.582;2023-06-14T07:07:17;101315.09;;;23.57;62.45
12987;BME280;58897;51.960;5.582;2023-06-14T07:09:43;101316.59;;;24.29;61.78
12987;BME280;58897;51.960;5.582;2023-06-14T07:12:11;101315.28;;;24.32;58.37
12987;BME280;58897;51.960;5.582;2023-06-14T07:14:38;101320.69;;;24.67;59.85
12987;BME280;58897;51.960;5.582;2023-06-14T07:17:04;101313.53;;;24.66;54.08
12987;BME280;58897;51.960;5.582;2023-06-14T07:19:31;101313.66;;;25.27;54.68
12987;BME280;58897;51.960;5.582;2023-06-14T07:21:58;101323.06;;;25.26;55.05
12987;BME280;58897;51.960;5.582;2023-06-14T07:24:25;101311.69;;;26.06;53.70
12987;BME280;58897;51.960;5.582;2023-06-14T07:26:51;101313.91;;;25.42;49.13
12987;BME280;58897;51.960;5.582;2023-06-14T07:29:18;101317.38;;;26.32;50.16
12987;BME280;58897;51.960;5.582;2023-06-14T07:31:44;101323.53;;;26.78;49.38
12987;BME280;58897;51.960;5.582;2023-06-14T07:34:11;101327.56;;;26.70;48.34
12987;BME280;58897;51.960;5.582;2023-06-14T07:36:37;101324.78;;;26.87;47.06
12987;BME280;58897;51.960;5.582;2023-06-14T07:39:04;101332.56;;;26.90;45.22
12987;BME280;58897;51.960;5.582;2023-06-14T07:41:32;101338.00;;;27.07;49.66
12987;BME280;58897;51.960;5.582;2023-06-14T07:43:59;101336.66;;;27.09;49.42
12987;BME280;58897;51.960;5.582;2023-06-14T07:46:26;101332.53;;;27.12;46.44
12987;BME280;58897;51.960;5.582;2023-06-14T07:48:53;101329.16;;;26.45;45.17
12987;BME280;58897;51.960;5.582;2023-06-14T07:51:20;101331.81;;;27.21;46.44
12987;BME280;58897;51.960;5.582;2023-06-14T07:53:48;101334.25;;;27.18;43.76
12987;BME280;58897;51.960;5.582;2023-06-14T07:56:15;101338.00;;;26.80;43.77
12987;BME280;58897;51.960;5.582;2023-06-14T07:58:41;101338.16;;;27.43;44.98
12987;BME280;58897;51.960;5.582;2023-06-14T08:01:08;101340.50;;;27.56;44.05
12987;BME280;58897;51.960;5.582;2023-06-14T08:03:35;101340.78;;;27.87;42.32
12987;BME280;58897;51.960;5.582;2023-06-14T08:06:03;101345.88;;;28.00;40.74
12987;BME280;58897;51.960;5.582;2023-06-14T08:08:30;101346.47;;;27.70;40.66
12987;BME280;58897;51.960;5.582;2023-06-14T08:10:57;101352.88;;;28.02;38.69
12987;BME280;58897;51.960;5.582;2023-06-14T08:13:24;101352.41;;;27.84;39.19
12987;BME280;58897;51.960;5.582;2023-06-14T08:15:50;101345.38;;;28.03;39.66
12987;BME280;58897;51.960;5.582;2023-06-14T08:18:17;101341.06;;;27.58;41.51
12987;BME280;58897;51.960;5.582;2023-06-14T08:20:44;101343.72;;;28.02;40.33
12987;BME280;58897;51.960;5.582;2023-06-14T08:23:10;101345.13;;;28.51;39.94
12987;BME280;58897;51.960;5.582;2023-06-14T08:25:37;101343.94;;;28.00;37.42
12987;BME280;58897;51.960;5.582;2023-06-14T08:28:04;101349.47;;;28.00;36.94
12987;BME280;58897;51.960;5.582;2023-06-14T08:30:31;101340.13;;;28.53;37.45
12987;BME280;58897;51.960;5.582;2023-06-14T08:32:57;101347.13;;;28.61;37.84
12987;BME280;58897;51.960;5.582;2023-06-14T08:35:40;101345.41;;;29.07;38.04
12987;BME280;58897;51.960;5.582;2023-06-14T08:38:07;101344.66;;;29.31;35.50
12987;BME280;58897;51.960;5.582;2023-06-14T08:40:37;101348.25;;;28.60;35.99
12987;BME280;58897;51.960;5.582;2023-06-14T08:43:04;101356.22;;;28.98;35.88
12987;BME280;58897;51.960;5.582;2023-06-14T08:45:31;101351.59;;;29.29;35.13
12987;BME280;58897;51.960;5.582;2023-06-14T08:47:59;101349.16;;;29.68;34.44
12987;BME280;58897;51.960;5.582;2023-06-14T08:50:27;101349.41;;;29.41;33.95
12987;BME280;58897;51.960;5.582;2023-06-14T08:53:00;101345.50;;;29.37;33.41
12987;BME280;58897;51.960;5.582;2023-06-14T08:55:30;101344.41;;;29.53;32.69
12987;BME280;58897;51.960;5.582;2023-06-14T08:58:01;101344.13;;;29.75;32.33
12987;BME280;58897;51.960;5.582;2023-06-14T09:00:30;101344.19;;;30.00;33.88
12987;BME280;58897;51.960;5.582;2023-06-14T09:02:57;101340.53;;;29.64;33.40
12987;BME280;58897;51.960;5.582;2023-06-14T09:05:25;101340.00;;;29.87;31.61
12987;BME280;58897;51.960;5.582;2023-06-14T09:07:53;101341.63;;;30.24;32.20
12987;BME280;58897;51.960;5.582;2023-06-14T09:10:27;101341.56;;;30.59;32.24
12987;BME280;58897;51.960;5.582;2023-06-14T09:12:55;101331.06;;;30.16;30.23
12987;BME280;58897;51.960;5.582;2023-06-14T09:15:21;101337.69;;;30.55;29.80
12987;BME280;58897;51.960;5.582;2023-06-14T09:17:48;101345.66;;;30.87;29.26
12987;BME280;58897;51.960;5.582;2023-06-14T09:20:15;101342.72;;;30.33;28.95
12987;BME280;58897;51.960;5.582;2023-06-14T09:22:45;101338.53;;;30.30;29.02
12987;BME280;58897;51.960;5.582;2023-06-14T09:25:12;101352.56;;;31.04;28.18
12987;BME280;58897;51.960;5.582;2023-06-14T09:28:01;101358.34;;;31.23;28.57
12987;BME280;58897;51.960;5.582;2023-06-14T09:30:28;101351.97;;;30.08;28.87
12987;BME280;58897;51.960;5.582;2023-06-14T09:32:55;101350.81;;;30.34;28.47
12987;BME280;58897;51.960;5.582;2023-06-14T09:35:23;101367.25;;;29.65;28.96
12987;BME280;58897;51.960;5.582;2023-06-14T09:37:49;101350.28;;;30.17;28.63
12987;BME280;58897;51.960;5.582;2023-06-14T09:40:20;101348.81;;;31.24;28.00
12987;BME280;58897;51.960;5.582;2023-06-14T09:42:47;101345.03;;;31.05;27.94
12987;BME280;58897;51.960;5.582;2023-06-14T09:45:14;101342.03;;;30.86;28.65
12987;BME280;58897;51.960;5.582;2023-06-14T09:47:46;101346.34;;;31.17;28.52
12987;BME280;58897;51.960;5.582;2023-06-14T09:50:31;101330.19;;;31.14;28.34
12987;BME280;58897;51.960;5.582;2023-06-14T09:53:03;101339.72;;;31.91;28.11
12987;BME280;58897;51.960;5.582;2023-06-14T09:55:34;101336.22;;;32.09;28.26
12987;BME280;58897;51.960;5.582;2023-06-14T09:58:05;101330.72;;;30.32;27.44
12987;BME280;58897;51.960;5.582;2023-06-14T10:00:34;101336.22;;;32.09;27.99
12987;BME280;58897;51.960;5.582;2023-06-14T10:03:06;101330.47;;;32.48;27.91
12987;BME280;58897;51.960;5.582;2023-06-14T10:05:36;101341.91;;;31.11;28.77
12987;BME280;58897;51.960;5.582;2023-06-14T10:08:06;101335.03;;;31.43;27.08
12987;BME280;58897;51.960;5.582;2023-06-14T10:10:34;101320.34;;;31.66;27.49
12987;BME280;58897;51.960;5.582;2023-06-14T10:13:00;101324.91;;;31.08;27.49
12987;BME280;58897;51.960;5.582;2023-06-14T10:15:42;101319.44;;;32.09;28.77
12987;BME280;58897;51.960;5.582;2023-06-14T10:18:33;101325.25;;;32.13;27.76
12987;BME280;58897;51.960;5.582;2023-06-14T10:21:06;101331.81;;;31.98;28.45
12987;BME280;58897;51.960;5.582;2023-06-14T10:23:38;101325.91;;;31.71;28.62
12987;BME280;58897;51.960;5.582;2023-06-14T10:26:08;101319.75;;;30.76;28.76
12987;BME280;58897;51.960;5.582;2023-06-14T10:28:37;101329.94;;;31.89;28.35
12987;BME280;58897;51.960;5.582;2023-06-14T10:33:33;101319.41;;;31.47;27.98
12987;BME280;58897;51.960;5.582;2023-06-14T10:36:31;101320.63;;;31.98;27.57
12987;BME280;58897;51.960;5.582;2023-06-14T10:39:17;101324.06;;;31.56;27.87
12987;BME280;58897;51.960;5.582;2023-06-14T10:41:52;101316.84;;;31.84;27.91
12987;BME280;58897;51.960;5.582;2023-06-14T10:46:49;101325.88;;;31.32;28.47
12987;BME280;58897;51.960;5.582;2023-06-14T10:49:19;101316.13;;;31.68;27.96
12987;BME280;58897;51.960;5.582;2023-06-14T10:51:50;101321.88;;;31.04;29.06
12987;BME280;58897;51.960;5.582;2023-06-14T10:54:21;101312.69;;;31.82;29.41
12987;BME280;58897;51.960;5.582;2023-06-14T10:56:50;101309.94;;;31.38;28.46
12987;BME280;58897;51.960;5.582;2023-06-14T10:59:18;101316.66;;;31.32;29.65
12987;BME280;58897;51.960;5.582;2023-06-14T11:02:03;101311.84;;;31.81;28.78
12987;BME280;58897;51.960;5.582;2023-06-14T11:04:49;101321.56;;;31.55;28.89
12987;BME280;58897;51.960;5.582;2023-06-14T11:10:22;101316.00;;;31.84;28.47
12987;BME280;58897;51.960;5.582;2023-06-14T11:12:54;101304.34;;;31.76;27.98
12987;BME280;58897;51.960;5.582;2023-06-14T11:15:28;101316.22;;;31.14;28.00
12987;BME280;58897;51.960;5.582;2023-06-14T11:17:55;101309.53;;;31.59;27.78
12987;BME280;58897;51.960;5.582;2023-06-14T11:20:24;101311.72;;;31.96;28.67
12987;BME280;58897;51.960;5.582;2023-06-14T11:22:54;101318.53;;;32.43;27.55
12987;BME280;58897;51.960;5.582;2023-06-14T11:25:21;101322.88;;;32.01;27.64
12987;BME280;58897;51.960;5.582;2023-06-14T11:27:49;101323.31;;;32.13;27.83
12987;BME280;58897;51.960;5.582;2023-06-14T11:30:17;101313.78;;;31.52;27.40
12987;BME280;58897;51.960;5.582;2023-06-14T11:32:51;101322.19;;;30.98;27.37
12987;BME280;58897;51.960;5.582;2023-06-14T11:35:22;101315.75;;;31.51;27.99
12987;BME280;58897;51.960;5.582;2023-06-14T11:37:55;101315.75;;;31.02;29.80
12987;BME280;58897;51.960;5.582;2023-06-14T11:40:24;101307.00;;;31.19;28.25
12987;BME280;58897;51.960;5.582;2023-06-14T11:42:58;101312.50;;;31.29;27.66
12987;BME280;58897;51.960;5.582;2023-06-14T11:45:26;101316.47;;;31.23;27.00
12987;BME280;58897;51.960;5.582;2023-06-14T11:47:55;101318.81;;;31.01;27.23
12987;BME280;58897;51.960;5.582;2023-06-14T11:50:25;101313.00;;;30.92;26.85
12987;BME280;58897;51.960;5.582;2023-06-14T11:52:56;101312.84;;;31.61;28.25
12987;BME280;58897;51.960;5.582;2023-06-14T11:55:24;101307.00;;;31.92;27.61
12987;BME280;58897;51.960;5.582;2023-06-14T11:57:53;101301.69;;;31.61;27.77
12987;BME280;58897;51.960;5.582;2023-06-14T12:00:25;101323.44;;;31.26;27.27
12987;BME280;58897;51.960;5.582;2023-06-14T12:02:53;101312.06;;;31.56;26.61
12987;BME280;58897;51.960;5.582;2023-06-14T12:05:23;101317.13;;;31.54;28.00
12987;BME280;58897;51.960;5.582;2023-06-14T12:07:50;101304.03;;;31.49;26.60
12987;BME280;58897;51.960;5.582;2023-06-14T12:10:19;101329.94;;;31.55;27.70
12987;BME280;58897;51.960;5.582;2023-06-14T12:12:46;101315.19;;;31.00;28.99
12987;BME280;58897;51.960;5.582;2023-06-14T12:15:13;101316.81;;;31.11;28.39
12987;BME280;58897;51.960;5.582;2023-06-14T12:17:42;101311.59;;;30.90;28.06
12987;BME280;58897;51.960;5.582;2023-06-14T12:20:11;101312.19;;;30.87;27.99
12987;BME280;58897;51.960;5.582;2023-06-14T12:22:53;101311.53;;;31.54;28.44
12987;BME280;58897;51.960;5.582;2023-06-14T12:25:27;101314.72;;;31.71;29.15
12987;BME280;58897;51.960;5.582;2023-06-14T12:27:54;101327.00;;;30.77;29.68
12987;BME280;58897;51.960;5.582;2023-06-14T12:30:21;101323.22;;;30.43;28.50
12987;BME280;58897;51.960;5.582;2023-06-14T12:32:48;101325.56;;;30.85;28.68
12987;BME280;58897;51.960;5.582;2023-06-14T12:35:15;101319.31;;;30.49;30.63
12987;BME280;58897;51.960;5.582;2023-06-14T12:37:42;101319.50;;;30.73;30.24
12987;BME280;58897;51.960;5.582;2023-06-14T12:40:09;101318.56;;;29.83;31.09
12987;BME280;58897;51.960;5.582;2023-06-14T12:42:37;101319.75;;;30.76;30.76
12987;BME280;58897;51.960;5.582;2023-06-14T12:45:04;101308.22;;;30.19;29.92
12987;BME280;58897;51.960;5.582;2023-06-14T12:47:31;101314.59;;;30.44;29.14
12987;BME280;58897;51.960;5.582;2023-06-14T12:49:58;101319.91;;;30.36;29.98
12987;BME280;58897;51.960;5.582;2023-06-14T12:52:25;101320.41;;;30.58;29.95
12987;BME280;58897;51.960;5.582;2023-06-14T12:54:51;101330.19;;;29.40;29.90
12987;BME280;58897;51.960;5.582;2023-06-14T12:57:18;101326.31;;;29.71;30.36
12987;BME280;58897;51.960;5.582;2023-06-14T12:59:44;101329.69;;;29.88;30.54
12987;BME280;58897;51.960;5.582;2023-06-14T13:04:39;101334.91;;;29.34;30.59
12987;BME280;58897;51.960;5.582;2023-06-14T13:07:06;101325.75;;;30.24;30.68
12987;BME280;58897;51.960;5.582;2023-06-14T13:09:32;101333.28;;;29.38;29.81